Current | Forecast
Updated: 12:00 AM CET on December 12, 2019
Observed at Paris / Charles De Gaulle, France
Temperature 6°C
Windchill 2°C
Humidity 87%
Dew Point 4°C
Wind WSW at 20 km/h
Wind Gust 44 km/h
Pressure 1006 hPa (Rising)
Conditions Mostly Cloudy
Visibility 10.0 kilometers
UV 0 out of 16
Clouds Scattered Clouds (SCT) : 487 m
Mostly Cloudy (BKN) : 701 m
Mostly Cloudy (BKN) : 1005 m
Yesterday's Maximum 8°C
Yesterday's Minimum 6°C approx.
Yesterday's Heating Degree Days 20 approx.
Sunrise8:32 AM CET
Sunset4:49 PM CET
Moon Rise5:13 PM CET
Moon Set8:33 AM CET
Moon PhaseMoon Phase
Full Moon
Raw METARMETAR LFPG 112300Z 25011G24KT 220V280 9999 SCT016 BKN023 BKN033 06/04 Q1006 NOSIG



Units: English | Metric

Find the Weather for any City, State or Zipcode, or Country:

U.S. State List | Severe Weather | Tropical Storms | Ski Conditions
United States | Canada | Central America | South America | Asia | Europe | Australia | Africa | Islands

Weather Underground

© Copyright 2019
The Weather Company, LLC